sensor_id;sensor_type;location;lat;lon;timestamp;temperature;humidity
41256;DHT22;26989;45.524;10.938;2023-02-05T00:01:40;4.80;99.90
41256;DHT22;26989;45.524;10.938;2023-02-05T00:04:08;4.80;99.90
41256;DHT22;26989;45.524;10.938;2023-02-05T00:06:35;5.00;99.90
41256;DHT22;26989;45.524;10.938;2023-02-05T00:09:01;4.90;99.90
41256;DHT22;26989;45.524;10.938;2023-02-05T00:11:28;4.80;99.90
41256;DHT22;26989;45.524;10.938;2023-02-05T00:13:55;4.80;99.90
41256;DHT22;26989;45.524;10.938;2023-02-05T00:16:23;4.90;99.90
41256;DHT22;26989;45.524;10.938;2023-02-05T00:18:51;4.90;99.90
41256;DHT22;26989;45.524;10.938;2023-02-05T00:21:19;5.00;99.90
41256;DHT22;26989;45.524;10.938;2023-02-05T00:23:47;4.90;99.90
41256;DHT22;26989;45.524;10.938;2023-02-05T00:26:14;5.10;99.90
41256;DHT22;26989;45.524;10.938;2023-02-05T00:28:41;5.20;99.90
41256;DHT22;26989;45.524;10.938;2023-02-05T00:31:10;5.20;99.90
41256;DHT22;26989;45.524;10.938;2023-02-05T00:33:38;5.30;99.90
41256;DHT22;26989;45.524;10.938;2023-02-05T00:36:06;5.40;99.90
41256;DHT22;26989;45.524;10.938;2023-02-05T00:38:33;5.30;99.90
41256;DHT22;26989;45.524;10.938;2023-02-05T00:40:59;5.50;99.90
41256;DHT22;26989;45.524;10.938;2023-02-05T00:43:26;5.50;99.90
41256;DHT22;26989;45.524;10.938;2023-02-05T00:45:53;5.70;99.90
41256;DHT22;26989;45.524;10.938;2023-02-05T00:48:20;5.70;99.90
41256;DHT22;26989;45.524;10.938;2023-02-05T00:50:51;5.60;99.90
41256;DHT22;26989;45.524;10.938;2023-02-05T00:53:20;5.60;99.90
41256;DHT22;26989;45.524;10.938;2023-02-05T00:55:46;5.50;99.90
41256;DHT22;26989;45.524;10.938;2023-02-05T00:58:14;5.60;99.90
41256;DHT22;26989;45.524;10.938;2023-02-05T01:00:41;5.60;99.90
41256;DHT22;26989;45.524;10.938;2023-02-05T01:03:08;5.30;99.90
41256;DHT22;26989;45.524;10.938;2023-02-05T01:05:36;5.50;99.90
41256;DHT22;26989;45.524;10.938;2023-02-05T01:08:06;5.30;99.90
41256;DHT22;26989;45.524;10.938;2023-02-05T01:10:33;5.50;99.90
41256;DHT22;26989;45.524;10.938;2023-02-05T01:13:00;5.70;99.90
41256;DHT22;26989;45.524;10.938;2023-02-05T01:15:27;5.50;99.90
41256;DHT22;26989;45.524;10.938;2023-02-05T01:17:54;5.40;99.90
41256;DHT22;26989;45.524;10.938;2023-02-05T01:20:21;5.30;99.90
41256;DHT22;26989;45.524;10.938;2023-02-05T01:22:48;5.10;99.90
41256;DHT22;26989;45.524;10.938;2023-02-05T01:25:15;5.20;99.90
41256;DHT22;26989;45.524;10.938;2023-02-05T01:27:42;5.20;99.90
41256;DHT22;26989;45.524;10.938;2023-02-05T01:30:09;5.30;99.90
41256;DHT22;26989;45.524;10.938;2023-02-05T01:32:38;5.00;99.90
41256;DHT22;26989;45.524;10.938;2023-02-05T01:35:07;4.90;99.90
41256;DHT22;26989;45.524;10.938;2023-02-05T01:37:34;4.80;99.90
41256;DHT22;26989;45.524;10.938;2023-02-05T01:40:01;4.70;99.90
41256;DHT22;26989;45.524;10.938;2023-02-05T01:42:29;4.50;99.90
41256;DHT22;26989;45.524;10.938;2023-02-05T01:47:51;4.00;99.90
41256;DHT22;26989;45.524;10.938;2023-02-05T01:50:23;3.80;99.90
41256;DHT22;26989;45.524;10.938;2023-02-05T01:52:53;3.60;99.90
41256;DHT22;26989;45.524;10.938;2023-02-05T01:55:20;3.70;99.90
41256;DHT22;26989;45.524;10.938;2023-02-05T01:57:49;3.60;99.90
41256;DHT22;26989;45.524;10.938;2023-02-05T02:00:17;3.50;99.90
41256;DHT22;26989;45.524;10.938;2023-02-05T02:02:45;3.60;99.90
41256;DHT22;26989;45.524;10.938;2023-02-05T02:05:14;3.50;99.90
41256;DHT22;26989;45.524;10.938;2023-02-05T02:07:41;3.30;99.90
41256;DHT22;26989;45.524;10.938;2023-02-05T02:10:11;3.00;99.90
41256;DHT22;26989;45.524;10.938;2023-02-05T02:12:41;2.90;99.90
41256;DHT22;26989;45.524;10.938;2023-02-05T02:15:17;3.00;99.90
41256;DHT22;26989;45.524;10.938;2023-02-05T02:17:46;3.00;99.90
41256;DHT22;26989;45.524;10.938;2023-02-05T02:20:21;3.30;99.90
41256;DHT22;26989;45.524;10.938;2023-02-05T02:25:47;3.80;99.90
41256;DHT22;26989;45.524;10.938;2023-02-05T02:30:51;3.80;99.90
41256;DHT22;26989;45.524;10.938;2023-02-05T02:39:06;4.00;99.90
41256;DHT22;26989;45.524;10.938;2023-02-05T02:42:02;3.90;99.90
41256;DHT22;26989;45.524;10.938;2023-02-05T02:47:04;3.60;99.90
41256;DHT22;26989;45.524;10.938;2023-02-05T02:49:35;3.40;99.90
41256;DHT22;26989;45.524;10.938;2023-02-05T02:52:06;3.50;99.90
41256;DHT22;26989;45.524;10.938;2023-02-05T02:54:35;3.50;99.90
41256;DHT22;26989;45.524;10.938;2023-02-05T02:57:05;3.70;99.90
41256;DHT22;26989;45.524;10.938;2023-02-05T02:59:34;3.80;99.90
41256;DHT22;26989;45.524;10.938;2023-02-05T03:02:04;3.80;99.90
41256;DHT22;26989;45.524;10.938;2023-02-05T03:04:33;4.30;99.90
41256;DHT22;26989;45.524;10.938;2023-02-05T03:07:53;4.20;99.90
41256;DHT22;26989;45.524;10.938;2023-02-05T03:10:12;4.00;99.90
41256;DHT22;26989;45.524;10.938;2023-02-05T03:12:40;3.60;99.90
41256;DHT22;26989;45.524;10.938;2023-02-05T03:15:08;3.50;99.90
41256;DHT22;26989;45.524;10.938;2023-02-05T03:17:35;3.50;99.90
41256;DHT22;26989;45.524;10.938;2023-02-05T03:22:39;3.60;99.90
41256;DHT22;26989;45.524;10.938;2023-02-05T03:25:07;3.40;99.90
41256;DHT22;26989;45.524;10.938;2023-02-05T03:27:34;3.40;99.90
41256;DHT22;26989;45.524;10.938;2023-02-05T03:30:02;3.20;99.90
41256;DHT22;26989;45.524;10.938;2023-02-05T03:35:21;3.20;99.90
41256;DHT22;26989;45.524;10.938;2023-02-05T03:46:02;3.00;99.90
41256;DHT22;26989;45.524;10.938;2023-02-05T03:48:45;3.00;99.90
41256;DHT22;26989;45.524;10.938;2023-02-05T03:54:19;3.10;99.90
41256;DHT22;26989;45.524;10.938;2023-02-05T03:59:36;3.40;99.90
41256;DHT22;26989;45.524;10.938;2023-02-05T04:02:04;3.10;99.90
41256;DHT22;26989;45.524;10.938;2023-02-05T04:04:31;3.00;99.90
41256;DHT22;26989;45.524;10.938;2023-02-05T04:06:58;3.10;99.90
41256;DHT22;26989;45.524;10.938;2023-02-05T04:09:25;3.20;99.90
41256;DHT22;26989;45.524;10.938;2023-02-05T04:11:52;3.30;99.90
41256;DHT22;26989;45.524;10.938;2023-02-05T04:14:19;3.50;99.90
41256;DHT22;26989;45.524;10.938;2023-02-05T04:16:45;3.30;99.90
41256;DHT22;26989;45.524;10.938;2023-02-05T04:19:12;3.20;99.90
41256;DHT22;26989;45.524;10.938;2023-02-05T04:21:39;3.10;99.90
41256;DHT22;26989;45.524;10.938;2023-02-05T04:24:06;3.30;99.90
41256;DHT22;26989;45.524;10.938;2023-02-05T04:26:33;3.50;99.90
41256;DHT22;26989;45.524;10.938;2023-02-05T04:29:00;3.40;99.90
41256;DHT22;26989;45.524;10.938;2023-02-05T04:31:27;3.30;99.90
41256;DHT22;26989;45.524;10.938;2023-02-05T04:33:54;3.40;99.90
41256;DHT22;26989;45.524;10.938;2023-02-05T04:36:21;3.40;99.90
41256;DHT22;26989;45.524;10.938;2023-02-05T04:38:47;3.20;99.90
41256;DHT22;26989;45.524;10.938;2023-02-05T04:41:14;3.00;99.90
41256;DHT22;26989;45.524;10.938;2023-02-05T04:43:41;3.00;99.90
41256;DHT22;26989;45.524;10.938;2023-02-05T04:46:09;3.20;99.90
41256;DHT22;26989;45.524;10.938;2023-02-05T04:48:37;3.20;99.90
41256;DHT22;26989;45.524;10.938;2023-02-05T04:51:06;3.30;99.90
41256;DHT22;26989;45.524;10.938;2023-02-05T04:53:33;3.20;99.90
41256;DHT22;26989;45.524;10.938;2023-02-05T04:56:05;3.10;99.90
41256;DHT22;26989;45.524;10.938;2023-02-05T04:58:32;3.00;99.90
41256;DHT22;26989;45.524;10.938;2023-02-05T05:00:59;3.00;99.90
41256;DHT22;26989;45.524;10.938;2023-02-05T05:03:26;3.00;99.90
41256;DHT22;26989;45.524;10.938;2023-02-05T05:05:53;3.00;99.90
41256;DHT22;26989;45.524;10.938;2023-02-05T05:08:20;3.00;99.90
41256;DHT22;26989;45.524;10.938;2023-02-05T05:10:47;2.90;99.90
41256;DHT22;26989;45.524;10.938;2023-02-05T05:13:14;2.80;99.90
41256;DHT22;26989;45.524;10.938;2023-02-05T05:15:41;2.70;99.90
41256;DHT22;26989;45.524;10.938;2023-02-05T05:18:08;2.80;99.90
41256;DHT22;26989;45.524;10.938;2023-02-05T05:20:34;2.80;99.90
41256;DHT22;26989;45.524;10.938;2023-02-05T05:23:01;3.00;99.90
41256;DHT22;26989;45.524;10.938;2023-02-05T05:25:29;2.70;99.90
41256;DHT22;26989;45.524;10.938;2023-02-05T05:27:56;2.80;99.90
41256;DHT22;26989;45.524;10.938;2023-02-05T05:30:23;2.90;99.90
41256;DHT22;26989;45.524;10.938;2023-02-05T05:32:49;2.90;99.90
41256;DHT22;26989;45.524;10.938;2023-02-05T05:35:16;3.00;99.90
41256;DHT22;26989;45.524;10.938;2023-02-05T05:37:43;2.80;99.90
41256;DHT22;26989;45.524;10.938;2023-02-05T05:40:11;2.90;99.90
41256;DHT22;26989;45.524;10.938;2023-02-05T05:42:57;2.70;99.90
41256;DHT22;26989;45.524;10.938;2023-02-05T05:45:42;2.60;99.90
41256;DHT22;26989;45.524;10.938;2023-02-05T05:48:09;2.60;99.90
41256;DHT22;26989;45.524;10.938;2023-02-05T05:50:36;2.60;99.90
41256;DHT22;26989;45.524;10.938;2023-02-05T05:53:03;2.60;99.90
41256;DHT22;26989;45.524;10.938;2023-02-05T05:55:29;2.80;99.90
41256;DHT22;26989;45.524;10.938;2023-02-05T05:57:56;2.80;99.90
41256;DHT22;26989;45.524;10.938;2023-02-05T06:00:23;2.70;99.90
41256;DHT22;26989;45.524;10.938;2023-02-05T06:02:50;2.60;99.90
41256;DHT22;26989;45.524;10.938;2023-02-05T06:05:17;2.60;99.90
41256;DHT22;26989;45.524;10.938;2023-02-05T06:07:44;2.40;99.90
41256;DHT22;26989;45.524;10.938;2023-02-05T06:10:11;2.40;99.90
41256;DHT22;26989;45.524;10.938;2023-02-05T06:12:38;2.40;99.90
41256;DHT22;26989;45.524;10.938;2023-02-05T06:15:06;2.60;99.90
41256;DHT22;26989;45.524;10.938;2023-02-05T06:17:33;2.70;99.90
41256;DHT22;26989;45.524;10.938;2023-02-05T06:20:00;2.80;99.90
41256;DHT22;26989;45.524;10.938;2023-02-05T06:22:26;2.80;99.90
41256;DHT22;26989;45.524;10.938;2023-02-05T06:24:53;2.90;99.90
41256;DHT22;26989;45.524;10.938;2023-02-05T06:27:20;2.90;99.90
41256;DHT22;26989;45.524;10.938;2023-02-05T06:29:47;2.90;99.90
41256;DHT22;26989;45.524;10.938;2023-02-05T06:32:14;2.90;99.90
41256;DHT22;26989;45.524;10.938;2023-02-05T06:34:41;2.90;99.90
41256;DHT22;26989;45.524;10.938;2023-02-05T06:37:08;3.00;99.90
41256;DHT22;26989;45.524;10.938;2023-02-05T06:39:35;3.00;99.90
41256;DHT22;26989;45.524;10.938;2023-02-05T06:42:03;3.10;99.90
41256;DHT22;26989;45.524;10.938;2023-02-05T06:44:30;3.20;99.90
41256;DHT22;26989;45.524;10.938;2023-02-05T06:46:56;3.20;99.90
41256;DHT22;26989;45.524;10.938;2023-02-05T06:49:23;3.20;99.90
41256;DHT22;26989;45.524;10.938;2023-02-05T06:51:50;3.40;99.90
41256;DHT22;26989;45.524;10.938;2023-02-05T06:54:17;3.50;99.90
41256;DHT22;26989;45.524;10.938;2023-02-05T06:56:45;3.50;99.90
41256;DHT22;26989;45.524;10.938;2023-02-05T06:59:13;3.50;99.90
41256;DHT22;26989;45.524;10.938;2023-02-05T07:01:40;3.60;99.90
41256;DHT22;26989;45.524;10.938;2023-02-05T07:04:07;3.70;99.90
41256;DHT22;26989;45.524;10.938;2023-02-05T07:06:34;3.80;99.90
41256;DHT22;26989;45.524;10.938;2023-02-05T07:09:01;3.80;99.90
41256;DHT22;26989;45.524;10.938;2023-02-05T07:11:28;3.80;99.90
41256;DHT22;26989;45.524;10.938;2023-02-05T07:13:55;3.80;99.90
41256;DHT22;26989;45.524;10.938;2023-02-05T07:16:22;3.80;99.90
41256;DHT22;26989;45.524;10.938;2023-02-05T07:18:48;3.90;99.90
41256;DHT22;26989;45.524;10.938;2023-02-05T07:21:16;4.00;99.90
41256;DHT22;26989;45.524;10.938;2023-02-05T07:23:43;4.00;99.90
41256;DHT22;26989;45.524;10.938;2023-02-05T07:26:15;4.10;99.90
41256;DHT22;26989;45.524;10.938;2023-02-05T07:28:42;4.30;99.90
41256;DHT22;26989;45.524;10.938;2023-02-05T07:31:12;4.50;99.90
41256;DHT22;26989;45.524;10.938;2023-02-05T07:33:41;5.00;99.90
41256;DHT22;26989;45.524;10.938;2023-02-05T07:36:11;4.90;99.90
41256;DHT22;26989;45.524;10.938;2023-02-05T07:38:39;5.10;99.90
41256;DHT22;26989;45.524;10.938;2023-02-05T07:41:08;5.30;99.90
41256;DHT22;26989;45.524;10.938;2023-02-05T07:43:35;5.40;99.90
41256;DHT22;26989;45.524;10.938;2023-02-05T07:46:05;5.40;99.90
41256;DHT22;26989;45.524;10.938;2023-02-05T07:48:33;5.60;99.90
41256;DHT22;26989;45.524;10.938;2023-02-05T07:51:00;5.70;99.90
41256;DHT22;26989;45.524;10.938;2023-02-05T07:53:27;5.60;99.90
41256;DHT22;26989;45.524;10.938;2023-02-05T07:55:54;5.50;99.90
41256;DHT22;26989;45.524;10.938;2023-02-05T07:58:22;5.50;99.90
41256;DHT22;26989;45.524;10.938;2023-02-05T08:00:48;5.40;99.90
41256;DHT22;26989;45.524;10.938;2023-02-05T08:03:15;5.40;99.90
41256;DHT22;26989;45.524;10.938;2023-02-05T08:05:42;5.20;99.90
41256;DHT22;26989;45.524;10.938;2023-02-05T08:08:11;5.10;99.90
41256;DHT22;26989;45.524;10.938;2023-02-05T08:10:39;5.10;99.90
41256;DHT22;26989;45.524;10.938;2023-02-05T08:13:07;5.30;99.90
41256;DHT22;26989;45.524;10.938;2023-02-05T08:15:37;5.40;99.90
41256;DHT22;26989;45.524;10.938;2023-02-05T08:18:04;5.50;99.90
41256;DHT22;26989;45.524;10.938;2023-02-05T08:20:31;5.60;99.90
41256;DHT22;26989;45.524;10.938;2023-02-05T08:22:58;5.60;99.90
41256;DHT22;26989;45.524;10.938;2023-02-05T08:25:25;5.70;99.90
41256;DHT22;26989;45.524;10.938;2023-02-05T08:27:52;5.80;99.90
41256;DHT22;26989;45.524;10.938;2023-02-05T08:30:19;6.00;99.90
41256;DHT22;26989;45.524;10.938;2023-02-05T08:32:48;6.20;99.90
41256;DHT22;26989;45.524;10.938;2023-02-05T08:35:17;6.40;99.90
41256;DHT22;26989;45.524;10.938;2023-02-05T08:37:43;6.50;99.90
41256;DHT22;26989;45.524;10.938;2023-02-05T08:40:11;6.40;99.80
41256;DHT22;26989;45.524;10.938;2023-02-05T08:42:38;6.30;99.70
41256;DHT22;26989;45.524;10.938;2023-02-05T08:45:06;6.60;99.90
41256;DHT22;26989;45.524;10.938;2023-02-05T08:47:35;6.70;99.60
41256;DHT22;26989;45.524;10.938;2023-02-05T08:50:05;6.90;99.30
41256;DHT22;26989;45.524;10.938;2023-02-05T08:52:32;6.90;99.30
41256;DHT22;26989;45.524;10.938;2023-02-05T08:54:59;7.20;98.90
41256;DHT22;26989;45.524;10.938;2023-02-05T08:57:28;7.10;98.60
41256;DHT22;26989;45.524;10.938;2023-02-05T08:59:56;7.20;98.50
41256;DHT22;26989;45.524;10.938;2023-02-05T09:02:23;7.40;98.50
41256;DHT22;26989;45.524;10.938;2023-02-05T09:04:54;7.40;97.80
41256;DHT22;26989;45.524;10.938;2023-02-05T09:07:34;7.20;97.90
41256;DHT22;26989;45.524;10.938;2023-02-05T09:10:01;7.30;98.30
41256;DHT22;26989;45.524;10.938;2023-02-05T09:12:28;7.50;97.70
41256;DHT22;26989;45.524;10.938;2023-02-05T09:14:55;7.40;97.80
41256;DHT22;26989;45.524;10.938;2023-02-05T09:17:21;7.30;98.20
41256;DHT22;26989;45.524;10.938;2023-02-05T09:19:48;7.40;97.70
41256;DHT22;26989;45.524;10.938;2023-02-05T09:22:15;7.40;98.20
41256;DHT22;26989;45.524;10.938;2023-02-05T09:24:44;7.10;97.80
41256;DHT22;26989;45.524;10.938;2023-02-05T09:27:10;7.10;98.30
41256;DHT22;26989;45.524;10.938;2023-02-05T09:29:40;7.30;97.70
41256;DHT22;26989;45.524;10.938;2023-02-05T09:32:07;7.40;98.10
41256;DHT22;26989;45.524;10.938;2023-02-05T09:34:34;7.30;97.70
41256;DHT22;26989;45.524;10.938;2023-02-05T09:37:01;7.30;98.20
41256;DHT22;26989;45.524;10.938;2023-02-05T09:39:29;7.50;97.60
41256;DHT22;26989;45.524;10.938;2023-02-05T09:42:26;7.70;97.20
41256;DHT22;26989;45.524;10.938;2023-02-05T09:50:26;7.90;96.30
41256;DHT22;26989;45.524;10.938;2023-02-05T09:52:59;7.60;96.60
41256;DHT22;26989;45.524;10.938;2023-02-05T09:55:33;7.80;96.90
41256;DHT22;26989;45.524;10.938;2023-02-05T09:58:12;8.00;96.60
41256;DHT22;26989;45.524;10.938;2023-02-05T10:00:48;7.90;96.50
41256;DHT22;26989;45.524;10.938;2023-02-05T10:03:30;8.10;96.00
41256;DHT22;26989;45.524;10.938;2023-02-05T10:31:12;8.30;95.90
41256;DHT22;26989;45.524;10.938;2023-02-05T10:33:51;8.10;96.40
41256;DHT22;26989;45.524;10.938;2023-02-05T10:36:24;7.90;96.20
41256;DHT22;26989;45.524;10.938;2023-02-05T10:38:55;7.80;96.40
41256;DHT22;26989;45.524;10.938;2023-02-05T10:41:30;7.80;96.50
41256;DHT22;26989;45.524;10.938;2023-02-05T10:47:01;7.80;96.40
41256;DHT22;26989;45.524;10.938;2023-02-05T10:52:42;8.00;96.50
41256;DHT22;26989;45.524;10.938;2023-02-05T11:06:49;8.40;95.60
41256;DHT22;26989;45.524;10.938;2023-02-05T11:14:45;8.10;96.10
41256;DHT22;26989;45.524;10.938;2023-02-05T11:17:23;7.90;96.30
41256;DHT22;26989;45.524;10.938;2023-02-05T11:19:58;7.70;96.60
41256;DHT22;26989;45.524;10.938;2023-02-05T11:22:29;7.40;96.90
41256;DHT22;26989;45.524;10.938;2023-02-05T11:25:19;7.50;97.30
41256;DHT22;26989;45.524;10.938;2023-02-05T11:27:58;7.50;96.80
41256;DHT22;26989;45.524;10.938;2023-02-05T11:38:09;7.50;97.00
41256;DHT22;26989;45.524;10.938;2023-02-05T11:41:02;7.60;97.00
41256;DHT22;26989;45.524;10.938;2023-02-05T11:43:37;7.70;96.80
41256;DHT22;26989;45.524;10.938;2023-02-05T11:46:25;7.90;96.40
41256;DHT22;26989;45.524;10.938;2023-02-05T11:49:01;8.10;96.50
41256;DHT22;26989;45.524;10.938;2023-02-05T11:59:05;8.60;95.90
41256;DHT22;26989;45.524;10.938;2023-02-05T12:01:34;8.70;95.90
41256;DHT22;26989;45.524;10.938;2023-02-05T12:06:49;9.10;95.40
41256;DHT22;26989;45.524;10.938;2023-02-05T12:16:51;8.10;97.00
41256;DHT22;26989;45.524;10.938;2023-02-05T12:40:28;7.40;98.50
41256;DHT22;26989;45.524;10.938;2023-02-05T12:43:32;7.30;98.90
41256;DHT22;26989;45.524;10.938;2023-02-05T12:54:51;7.20;98.90
41256;DHT22;26989;45.524;10.938;2023-02-05T12:57:43;7.30;98.80
41256;DHT22;26989;45.524;10.938;2023-02-05T13:07:31;6.90;99.90
41256;DHT22;26989;45.524;10.938;2023-02-05T13:17:05;6.70;99.90
41256;DHT22;26989;45.524;10.938;2023-02-05T13:19:42;6.70;99.90
41256;DHT22;26989;45.524;10.938;2023-02-05T13:32:35;6.70;99.90
41256;DHT22;26989;45.524;10.938;2023-02-05T13:35:06;6.70;99.90
41256;DHT22;26989;45.524;10.938;2023-02-05T14:15:34;6.30;99.90
41256;DHT22;26989;45.524;10.938;2023-02-05T14:22:00;6.10;99.90
41256;DHT22;26989;45.524;10.938;2023-02-05T14:24:48;6.20;99.90
41256;DHT22;26989;45.524;10.938;2023-02-05T14:41:15;6.10;99.90
41256;DHT22;26989;45.524;10.938;2023-02-05T14:50:31;6.30;99.90
41256;DHT22;26989;45.524;10.938;2023-02-05T14:53:20;6.30;99.90
41256;DHT22;26989;45.524;10.938;2023-02-05T14:56:46;6.20;99.90
41256;DHT22;26989;45.524;10.938;2023-02-05T15:06:55;6.20;99.90
41256;DHT22;26989;45.524;10.938;2023-02-05T15:09:57;6.10;99.90
41256;DHT22;26989;45.524;10.938;2023-02-05T15:13:01;6.10;99.90
41256;DHT22;26989;45.524;10.938;2023-02-05T15:30:17;5.80;99.90
41256;DHT22;26989;45.524;10.938;2023-02-05T15:43:21;5.60;99.90
41256;DHT22;26989;45.524;10.938;2023-02-05T15:46:45;5.60;99.90
41256;DHT22;26989;45.524;10.938;2023-02-05T15:49:14;5.60;99.90
41256;DHT22;26989;45.524;10.938;2023-02-05T16:13:17;5.40;99.90
41256;DHT22;26989;45.524;10.938;2023-02-05T16:18:38;5.30;99.90
41256;DHT22;26989;45.524;10.938;2023-02-05T16:21:49;5.30;99.90
41256;DHT22;26989;45.524;10.938;2023-02-05T16:24:23;5.30;99.90
41256;DHT22;26989;45.524;10.938;2023-02-05T16:27:13;5.30;99.90
41256;DHT22;26989;45.524;10.938;2023-02-05T16:29:49;5.20;99.90
41256;DHT22;26989;45.524;10.938;2023-02-05T16:32:35;5.20;99.90
41256;DHT22;26989;45.524;10.938;2023-02-05T16:35:15;5.20;99.90
41256;DHT22;26989;45.524;10.938;2023-02-05T16:37:46;5.20;99.90
41256;DHT22;26989;45.524;10.938;2023-02-05T16:40:14;5.10;99.90
41256;DHT22;26989;45.524;10.938;2023-02-05T16:42:55;5.20;99.90
41256;DHT22;26989;45.524;10.938;2023-02-05T16:45:25;5.10;99.90
41256;DHT22;26989;45.524;10.938;2023-02-05T16:48:37;5.10;99.90
41256;DHT22;26989;45.524;10.938;2023-02-05T16:51:05;5.10;99.90
41256;DHT22;26989;45.524;10.938;2023-02-05T16:53:35;5.00;99.90
41256;DHT22;26989;45.524;10.938;2023-02-05T16:56:23;5.00;99.90
41256;DHT22;26989;45.524;10.938;2023-02-05T16:58:56;5.00;99.90
41256;DHT22;26989;45.524;10.938;2023-02-05T17:01:35;5.00;99.90
41256;DHT22;26989;45.524;10.938;2023-02-05T17:04:04;5.00;99.90
41256;DHT22;26989;45.524;10.938;2023-02-05T17:06:35;5.00;99.90
41256;DHT22;26989;45.524;10.938;2023-02-05T17:09:03;4.90;99.90
41256;DHT22;26989;45.524;10.938;2023-02-05T17:11:40;4.90;99.90
41256;DHT22;26989;45.524;10.938;2023-02-05T17:14:27;5.00;99.90
41256;DHT22;26989;45.524;10.938;2023-02-05T17:17:08;5.00;99.90
41256;DHT22;26989;45.524;10.938;2023-02-05T17:19:41;5.00;99.90
41256;DHT22;26989;45.524;10.938;2023-02-05T17:24:47;5.00;99.90
41256;DHT22;26989;45.524;10.938;2023-02-05T17:27:37;5.00;99.90
41256;DHT22;26989;45.524;10.938;2023-02-05T17:30:05;5.00;99.90
41256;DHT22;26989;45.524;10.938;2023-02-05T17:32:32;5.00;99.90
41256;DHT22;26989;45.524;10.938;2023-02-05T17:35:00;5.00;99.90
41256;DHT22;26989;45.524;10.938;2023-02-05T17:37:27;4.90;99.90
41256;DHT22;26989;45.524;10.938;2023-02-05T17:39:54;4.90;99.90
41256;DHT22;26989;45.524;10.938;2023-02-05T17:42:25;4.90;99.90
41256;DHT22;26989;45.524;10.938;2023-02-05T17:44:52;4.90;99.90
41256;DHT22;26989;45.524;10.938;2023-02-05T17:47:19;4.90;99.90
41256;DHT22;26989;45.524;10.938;2023-02-05T17:49:46;4.80;99.90
41256;DHT22;26989;45.524;10.938;2023-02-05T17:52:13;4.90;99.90
41256;DHT22;26989;45.524;10.938;2023-02-05T17:54:43;4.80;99.90
41256;DHT22;26989;45.524;10.938;2023-02-05T17:57:19;4.80;99.90
41256;DHT22;26989;45.524;10.938;2023-02-05T17:59:47;4.80;99.90
41256;DHT22;26989;45.524;10.938;2023-02-05T18:02:15;4.80;99.90
41256;DHT22;26989;45.524;10.938;2023-02-05T18:04:42;4.80;99.90
41256;DHT22;26989;45.524;10.938;2023-02-05T18:07:32;4.80;99.90
41256;DHT22;26989;45.524;10.938;2023-02-05T18:10:01;4.80;99.90
41256;DHT22;26989;45.524;10.938;2023-02-05T18:12:28;4.80;99.90
41256;DHT22;26989;45.524;10.938;2023-02-05T18:14:56;4.80;99.90
41256;DHT22;26989;45.524;10.938;2023-02-05T18:17:23;4.80;99.90
41256;DHT22;26989;45.524;10.938;2023-02-05T18:19:50;4.80;99.90
41256;DHT22;26989;45.524;10.938;2023-02-05T18:22:17;4.80;99.90
41256;DHT22;26989;45.524;10.938;2023-02-05T18:24:44;4.70;99.90
41256;DHT22;26989;45.524;10.938;2023-02-05T18:27:11;4.70;99.90
41256;DHT22;26989;45.524;10.938;2023-02-05T18:29:38;4.70;99.90
41256;DHT22;26989;45.524;10.938;2023-02-05T18:32:05;4.70;99.90
41256;DHT22;26989;45.524;10.938;2023-02-05T18:34:32;4.70;99.90
41256;DHT22;26989;45.524;10.938;2023-02-05T18:36:59;4.70;99.90
41256;DHT22;26989;45.524;10.938;2023-02-05T18:39:26;4.70;99.90
41256;DHT22;26989;45.524;10.938;2023-02-05T18:41:55;4.70;99.90
41256;DHT22;26989;45.524;10.938;2023-02-05T18:44:23;4.60;99.90
41256;DHT22;26989;45.524;10.938;2023-02-05T18:46:50;4.70;99.90
41256;DHT22;26989;45.524;10.938;2023-02-05T18:49:17;4.70;99.90
41256;DHT22;26989;45.524;10.938;2023-02-05T18:51:44;4.70;99.90
41256;DHT22;26989;45.524;10.938;2023-02-05T18:54:11;4.60;99.90
41256;DHT22;26989;45.524;10.938;2023-02-05T18:56:38;4.60;99.90
41256;DHT22;26989;45.524;10.938;2023-02-05T18:59:07;4.60;99.90
41256;DHT22;26989;45.524;10.938;2023-02-05T19:01:36;4.60;99.90
41256;DHT22;26989;45.524;10.938;2023-02-05T19:04:06;4.60;99.90
41256;DHT22;26989;45.524;10.938;2023-02-05T19:06:34;4.60;99.90
41256;DHT22;26989;45.524;10.938;2023-02-05T19:09:02;4.60;99.90
41256;DHT22;26989;45.524;10.938;2023-02-05T19:11:30;4.50;99.90
41256;DHT22;26989;45.524;10.938;2023-02-05T19:13:59;4.50;99.90
41256;DHT22;26989;45.524;10.938;2023-02-05T19:16:29;4.50;99.90
41256;DHT22;26989;45.524;10.938;2023-02-05T19:18:57;4.60;99.90
41256;DHT22;26989;45.524;10.938;2023-02-05T19:21:25;4.50;99.90
41256;DHT22;26989;45.524;10.938;2023-02-05T19:23:56;4.50;99.90
41256;DHT22;26989;45.524;10.938;2023-02-05T19:26:25;4.50;99.90
41256;DHT22;26989;45.524;10.938;2023-02-05T19:28:57;4.50;99.90
41256;DHT22;26989;45.524;10.938;2023-02-05T19:31:26;4.40;99.90
41256;DHT22;26989;45.524;10.938;2023-02-05T19:33:54;4.40;99.90
41256;DHT22;26989;45.524;10.938;2023-02-05T19:36:22;4.40;99.90
41256;DHT22;26989;45.524;10.938;2023-02-05T19:38:48;4.40;99.90
41256;DHT22;26989;45.524;10.938;2023-02-05T19:41:18;4.40;99.90
41256;DHT22;26989;45.524;10.938;2023-02-05T19:43:53;4.50;99.90
41256;DHT22;26989;45.524;10.938;2023-02-05T19:46:23;4.40;99.90
41256;DHT22;26989;45.524;10.938;2023-02-05T19:48:52;4.40;99.90
41256;DHT22;26989;45.524;10.938;2023-02-05T19:51:19;4.40;99.90
41256;DHT22;26989;45.524;10.938;2023-02-05T19:53:47;4.40;99.90
41256;DHT22;26989;45.524;10.938;2023-02-05T19:56:16;4.50;99.90
41256;DHT22;26989;45.524;10.938;2023-02-05T19:58:46;4.40;99.90
41256;DHT22;26989;45.524;10.938;2023-02-05T20:01:30;4.40;99.90
41256;DHT22;26989;45.524;10.938;2023-02-05T20:04:06;4.40;99.90
41256;DHT22;26989;45.524;10.938;2023-02-05T20:06:35;4.30;99.90
41256;DHT22;26989;45.524;10.938;2023-02-05T20:09:03;4.40;99.90
41256;DHT22;26989;45.524;10.938;2023-02-05T20:11:39;4.40;99.90
41256;DHT22;26989;45.524;10.938;2023-02-05T20:14:08;4.40;99.90
41256;DHT22;26989;45.524;10.938;2023-02-05T20:16:37;4.40;99.90
41256;DHT22;26989;45.524;10.938;2023-02-05T20:19:06;4.40;99.90
41256;DHT22;26989;45.524;10.938;2023-02-05T20:21:35;4.40;99.90
41256;DHT22;26989;45.524;10.938;2023-02-05T20:24:03;4.40;99.90
41256;DHT22;26989;45.524;10.938;2023-02-05T20:26:31;4.40;99.90
41256;DHT22;26989;45.524;10.938;2023-02-05T20:28:58;4.40;99.90
41256;DHT22;26989;45.524;10.938;2023-02-05T20:31:47;4.40;99.90
41256;DHT22;26989;45.524;10.938;2023-02-05T20:34:20;4.40;99.90
41256;DHT22;26989;45.524;10.938;2023-02-05T20:36:54;4.30;99.90
41256;DHT22;26989;45.524;10.938;2023-02-05T20:39:23;4.40;99.90
41256;DHT22;26989;45.524;10.938;2023-02-05T20:41:52;4.40;99.90
41256;DHT22;26989;45.524;10.938;2023-02-05T20:44:21;4.40;99.90